WEATHER DATA

YESTERDAY
Time Temp. Dewp. Hum. Bar. 1h Prec. 24h Prec.
00:02 22.8 17.5 72 1006 0.0000 0.0000
00:13 22.8 18.1 75 1006 0.3030 0.3000
00:23 22.6 18.4 77 1006 0.6060 0.6000
00:33 22.5 18.5 78 1006 0.6060 0.6000
00:43 22.4 18.6 79 1006.1 0.6060 0.6000
00:53 22.3 18.5 79 1006.4 0.6060 0.6000
01:04 22.2 18.6 80 1006.4 0.6060 0.7000
01:13 22.1 18.5 80 1006.1 0.5050 1.0000
01:23 21.9 18.5 81 1006.3 0.5050 1.1000
01:34 21.7 18.5 82 1006.4 0.7070 1.3000
01:44 21.5 18.3 82 1006.2 0.9090 1.5000
01:54 21.2 18 82 1006.1 1.3130 1.9000
02:03 21.1 18.3 84 1006.2 1.3130 2.1000
02:14 21 18 83 1006.2 1.7170 2.7000
02:24 21 18.2 84 1006.3 2.2220 3.4000
02:34 20.9 18.1 84 1006.5 3.1310 4.4000
02:44 20.8 18.2 85 1006.4 4.1410 5.7000
02:54 20.7 18.1 85 1006.3 5.0500 7.0000
03:04 20.5 17.7 84 1006.3 6.1610 8.3000
03:14 20.6 18 85 1006.1 6.5650 9.3000
03:25 20.5 17.9 85 1005.6 7.0700 10.5000
03:34 20.3 17.7 85 1005.2 6.6660 11.1000
03:44 20.2 17.8 86 1005 5.7570 11.4000
03:55 20.2 17.8 86 1004.9 4.7470 11.7000
04:05 20.1 17.7 86 1005.1 3.5350 11.8000
04:15 20.2 17.8 86 1005.5 2.6260 11.9000
04:24 20.1 17.7 86 1006 1.4140 11.9000
04:35 20.2 17.8 86 1005.7 1.1110 12.2000
04:45 20.2 17.8 86 1005.2 0.8080 12.2000
04:55 20.1 17.7 86 1005.1 0.5050 12.2000
05:05 20.1 17.9 87 1005.2 0.4040 12.2000
05:15 20.3 17.9 86 1005 0.3030 12.2000
05:25 20.3 17.9 86 1005.1 0.3030 12.2000
05:35 20.3 17.9 86 1005.2 0.0000 12.2000
05:46 20.5 17.9 85 1005.2 0.0000 12.2000
05:55 20.4 18 86 1005.3 0.0000 12.2000
06:05 20.4 18.2 87 1005.1 0.0000 12.2000
06:16 20.5 18.1 86 1005.1 0.1010 12.3000
06:26 20.5 17.9 85 1005.2 0.1010 12.3000
06:35 20.5 17.9 85 1005.3 0.1010 12.3000
06:45 20.8 18 84 1005.1 0.1010 12.3000
06:56 20.9 18.1 84 1005 0.1010 12.3000
07:06 21 18 83 1005 0.1010 12.3000
07:16 20.9 17.7 82 1005 0.0000 12.3000
07:26 20.9 17.7 82 1004.9 0.0000 12.3000
07:36 21 17.8 82 1005 0.0000 12.3000
07:46 21 17.6 81 1005 0.0000 12.3000
07:56 21 17.6 81 1005.2 0.1010 12.4000
08:07 20.9 17.5 81 1005.3 0.1010 12.4000
08:16 20.8 17.2 80 1005.5 0.1010 12.4000
08:26 20.8 17 79 1005.7 0.1010 12.4000
08:37 20.8 17 79 1005.7 0.1010 12.4000
08:47 20.7 16.9 79 1005.8 0.1010 12.4000
08:56 20.7 16.9 79 1005.7 0.0000 12.4000
09:06 20.7 16.9 79 1005.7 0.0000 12.4000
09:17 20.8 17 79 1005.7 0.0000 12.4000
09:27 20.9 16.9 78 1006 0.0000 12.4000
09:37 20.9 16.9 78 1006 0.0000 12.4000
09:47 21 17 78 1006.1 0.0000 12.4000
09:57 21 17 78 1006.2 0.0000 12.4000
10:07 21 16.8 77 1006.2 0.0000 12.4000
10:17 21 16.8 77 1006.3 0.0000 12.4000
10:27 21 16.8 77 1006.3 0.0000 12.4000
10:37 21 16.8 77 1006.3 0.0000 12.4000
10:47 21.1 16.9 77 1006.3 0.0000 12.4000
10:58 21.1 16.9 77 1006.3 0.0000 12.4000
11:08 21.2 17 77 1006.3 0.0000 12.4000
11:17 21.3 17.1 77 1006.3 0.0000 12.4000
11:27 21.5 17.3 77 1006.4 0.0000 12.4000
11:38 21.6 17.2 76 1006.5 0.0000 12.4000
11:48 21.7 17.1 75 1006.6 0.0000 12.4000
11:57 21.9 17.1 74 1006.6 0.0000 12.4000
12:08 22.1 17.3 74 1006.6 0.0000 12.4000
12:18 22.2 17.1 73 1006.6 0.0000 12.4000
12:28 22.3 17 72 1006.7 0.0000 12.4000
12:38 22.3 17.2 73 1006.7 0.0000 12.4000
12:48 22.3 17.2 73 1006.7 0.0000 12.4000
12:58 22.5 17.2 72 1006.7 0.0000 12.4000
13:08 22.7 17 70 1006.7 0.0000 12.4000
13:19 23 17.5 71 1006.7 0.0000 12.4000
13:29 23.2 17.7 71 1006.8 0.0000 12.4000
13:38 23.4 17.4 69 1006.8 0.0000 12.4000
13:48 23.7 17.4 68 1006.8 0.0000 12.4000
13:59 24.1 17.4 66 1006.8 0.0000 12.4000
14:09 24.4 17.2 64 1006.8 0.0000 12.4000
14:18 24.8 18 66 1006.8 0.0000 12.4000
14:29 25.3 18 64 1006.8 0.0000 12.4000
14:39 26 18.7 64 1006.7 0.0000 12.4000
14:49 26.6 18.5 61 1006.6 0.0000 12.4000
14:59 26.9 17.9 58 1006.7 0.0000 12.4000
15:09 27.2 18.2 58 1006.6 0.0000 12.4000
15:19 26.7 17.8 58 1006.7 0.0000 12.4000
15:29 26.4 17.7 59 1006.6 0.0000 12.4000
15:39 26.8 18.1 59 1006.5 0.0000 12.4000
15:49 27.4 18.4 58 1006.6 0.0000 12.4000
15:59 27.6 18 56 1006.5 0.0000 12.4000
16:09 27.9 18.3 56 1006.5 0.0000 12.4000
16:20 28 18.1 55 1006.6 0.0000 12.4000
16:30 27.9 18 55 1006.7 0.0000 12.4000
16:39 27.7 18.1 56 1006.8 0.0000 12.4000
16:50 27.4 17.9 56 1006.9 0.0000 12.4000
17:00 27.2 17.9 57 1006.8 0.0000 12.4000
17:10 27.3 18 57 1006.8 0.0000 12.4000
17:19 27.3 18 57 1007 0.0000 12.4000
17:30 27.5 18.5 58 1007 0.0000 12.4000
17:40 27.9 18.6 57 1007 0.0000 12.4000
17:50 28.5 18.6 55 1007.1 0.0000 12.4000
18:00 28.8 18.6 54 1007.2 0.0000 12.4000
18:10 28.8 18.6 54 1007.5 0.0000 12.4000
18:20 28.5 18.3 54 1007.9 0.0000 12.4000
18:30 27.8 17.6 54 1008.1 0.0000 12.4000
18:41 26.7 16.9 55 1008.3 0.0000 12.4000
18:51 25.6 16.2 56 1008.6 0.0000 12.4000
19:00 24.7 15.6 57 1008.7 0.0000 12.4000
19:11 24 15.5 59 1009 0.0000 12.4000
19:21 23.4 15.5 61 1009.4 0.0000 12.4000
19:31 22.7 14.8 61 1009.6 0.0000 12.4000
19:40 22.2 14.6 62 1009.6 0.0000 12.4000
19:51 21.8 14.5 63 1009.9 0.0000 12.4000
20:01 21.5 14.2 63 1010 0.0000 12.4000
20:11 20.8 13.7 64 1010.1 0.0000 12.4000
20:21 20.4 13.8 66 1010.1 0.0000 12.4000
20:31 19.9 13.6 67 1010.3 0.0000 12.4000
20:41 19.7 13.6 68 1010.7 0.0000 12.4000
20:51 19.6 13.8 69 1010.9 0.0000 12.4000
21:02 19.3 13.7 70 1010.9 0.0000 12.4000
21:12 19.1 13.7 71 1010.8 0.0000 12.4000
21:21 18.9 13.5 71 1011 0.0000 12.4000
21:32 18.7 13.6 72 1011.1 0.0000 12.4000
21:42 18.6 13.5 72 1011.2 0.0000 12.4000
21:52 18.5 13.6 73 1011.4 0.0000 12.4000
22:02 18.1 13.2 73 1011.3 0.0000 12.4000
22:12 17.9 13.4 75 1012 0.0000 12.4000
22:22 17.9 13.2 74 1011.6 0.0000 12.4000
22:32 17.7 13.4 76 1011.5 0.0000 12.4000
22:42 17.3 13.4 78 1011.5 0.0000 12.4000
22:53 17 13.3 79 1011.9 0.0000 12.4000
23:02 17 13.3 79 1011.9 0.0000 12.4000
23:12 16.8 13.1 79 1012.1 0.0000 12.4000
23:23 16.7 13 79 1012.3 0.0000 12.4000
23:33 16.6 12.9 79 1012.5 0.0000 12.4000
23:42 16.5 12.8 79 1012.4 0.0000 12.4000
23:53 16.4 12.6 78 1012.6 0.0000 12.4000

DAY STATISTIC

2021-06-21
TEMPERATURE
AVERAGE
22.0
HIGH
28.8
18:00
LOW
16.4
23:53
PRESSURE
AVERAGE
1007.2
HIGH
1012.6
23:53
LOW
1004.9
03:55
DEWPOINT
AVERAGE
16.9
HIGH
18.7
14:39
LOW
12.6
23:53
HUMIDITY
AVERAGE
73
HIGH
87
05:05
LOW
54
18:00
PRECIPITATION
RAIN HOUR
7.1
RAIN DAY
12.4
TEMPERATURE (°C)
LOW
16.4
HIGH
28.8
AVERAGE
22.0
PRESSURE (hpa)
LOW
1004.9
HIGH
1012.6
AVERAGE
1007.2
DEVICE